Terminal Aerodrome Forecast
Issued by NWS

Home | Current Version | Previous Version | Text Only | Print | Product List | Glossary On
Versions: 1 2 3 4 5 6 7 8 9 10 11 12 13 14
000
FTUS45 KRIW 300523
TAFLND
TAF
KLND 300523Z 3006/0106 24007KT P6SM FEW110 BKN250
     FM301700 02008KT P6SM SCT110 BKN200
     FM301900 03010G20KT P6SM VCTS SCT090CB BKN110
     FM010500 27007KT P6SM BKN100=

USA.gov is the U.S. government's official web portal to all federal, state and local government web resources and services.